sensor_id;sensor_type;location;lat;lon;timestamp;P1;durP1;ratioP1;P2;durP2;ratioP2
6463;SDS011;3265;42.694;23.282;2023-05-20T00:01:08;26.60;;;16.23;;
6463;SDS011;3265;42.694;23.282;2023-05-20T00:03:35;31.17;;;15.97;;
6463;SDS011;3265;42.694;23.282;2023-05-20T00:06:01;26.53;;;15.13;;
6463;SDS011;3265;42.694;23.282;2023-05-20T00:08:30;32.13;;;15.77;;
6463;SDS011;3265;42.694;23.282;2023-05-20T00:10:57;25.40;;;13.00;;
6463;SDS011;3265;42.694;23.282;2023-05-20T00:13:24;23.43;;;13.90;;
6463;SDS011;3265;42.694;23.282;2023-05-20T00:15:51;24.57;;;15.10;;
6463;SDS011;3265;42.694;23.282;2023-05-20T00:18:18;23.87;;;15.50;;
6463;SDS011;3265;42.694;23.282;2023-05-20T00:20:45;24.37;;;14.80;;
6463;SDS011;3265;42.694;23.282;2023-05-20T00:23:11;25.17;;;15.03;;
6463;SDS011;3265;42.694;23.282;2023-05-20T00:25:40;22.43;;;15.10;;
6463;SDS011;3265;42.694;23.282;2023-05-20T00:28:07;27.57;;;15.23;;
6463;SDS011;3265;42.694;23.282;2023-05-20T00:30:33;23.20;;;15.13;;
6463;SDS011;3265;42.694;23.282;2023-05-20T00:33:00;25.43;;;14.50;;
6463;SDS011;3265;42.694;23.282;2023-05-20T00:35:27;23.67;;;14.57;;
6463;SDS011;3265;42.694;23.282;2023-05-20T00:37:54;25.67;;;13.93;;
6463;SDS011;3265;42.694;23.282;2023-05-20T00:40:21;24.63;;;13.90;;
6463;SDS011;3265;42.694;23.282;2023-05-20T00:42:50;22.47;;;13.43;;
6463;SDS011;3265;42.694;23.282;2023-05-20T00:45:17;25.87;;;13.30;;
6463;SDS011;3265;42.694;23.282;2023-05-20T00:47:44;20.53;;;13.90;;
6463;SDS011;3265;42.694;23.282;2023-05-20T00:50:11;23.97;;;13.97;;
6463;SDS011;3265;42.694;23.282;2023-05-20T00:52:38;21.47;;;12.40;;
6463;SDS011;3265;42.694;23.282;2023-05-20T00:55:05;24.80;;;13.37;;
6463;SDS011;3265;42.694;23.282;2023-05-20T00:57:33;24.40;;;15.27;;
6463;SDS011;3265;42.694;23.282;2023-05-20T01:00:01;26.27;;;15.97;;
6463;SDS011;3265;42.694;23.282;2023-05-20T01:02:28;23.33;;;15.83;;
6463;SDS011;3265;42.694;23.282;2023-05-20T01:04:55;22.07;;;15.23;;
6463;SDS011;3265;42.694;23.282;2023-05-20T01:07:23;28.30;;;17.60;;
6463;SDS011;3265;42.694;23.282;2023-05-20T01:09:50;31.50;;;17.67;;
6463;SDS011;3265;42.694;23.282;2023-05-20T01:12:20;27.60;;;17.10;;
6463;SDS011;3265;42.694;23.282;2023-05-20T01:14:49;27.83;;;17.20;;
6463;SDS011;3265;42.694;23.282;2023-05-20T01:17:22;23.47;;;16.53;;
6463;SDS011;3265;42.694;23.282;2023-05-20T01:19:52;26.87;;;16.27;;
6463;SDS011;3265;42.694;23.282;2023-05-20T01:22:24;26.73;;;16.67;;
6463;SDS011;3265;42.694;23.282;2023-05-20T01:24:51;27.30;;;17.00;;
6463;SDS011;3265;42.694;23.282;2023-05-20T01:27:19;28.30;;;16.93;;
6463;SDS011;3265;42.694;23.282;2023-05-20T01:29:47;27.43;;;16.07;;
6463;SDS011;3265;42.694;23.282;2023-05-20T01:32:18;21.93;;;15.27;;
6463;SDS011;3265;42.694;23.282;2023-05-20T01:34:47;32.77;;;16.23;;
6463;SDS011;3265;42.694;23.282;2023-05-20T01:37:16;30.17;;;17.17;;
6463;SDS011;3265;42.694;23.282;2023-05-20T01:39:46;25.13;;;14.63;;
6463;SDS011;3265;42.694;23.282;2023-05-20T01:42:15;20.53;;;13.57;;
6463;SDS011;3265;42.694;23.282;2023-05-20T01:44:43;20.27;;;13.00;;
6463;SDS011;3265;42.694;23.282;2023-05-20T01:47:10;22.50;;;13.17;;
6463;SDS011;3265;42.694;23.282;2023-05-20T01:49:37;20.17;;;13.80;;
6463;SDS011;3265;42.694;23.282;2023-05-20T01:52:03;26.33;;;14.00;;
6463;SDS011;3265;42.694;23.282;2023-05-20T01:54:30;26.03;;;15.40;;
6463;SDS011;3265;42.694;23.282;2023-05-20T01:56:59;32.60;;;16.73;;
6463;SDS011;3265;42.694;23.282;2023-05-20T01:59:27;30.23;;;15.83;;
6463;SDS011;3265;42.694;23.282;2023-05-20T02:01:53;27.13;;;15.30;;
6463;SDS011;3265;42.694;23.282;2023-05-20T02:04:20;24.13;;;14.83;;
6463;SDS011;3265;42.694;23.282;2023-05-20T02:06:47;20.40;;;13.73;;
6463;SDS011;3265;42.694;23.282;2023-05-20T02:09:14;27.17;;;13.23;;
6463;SDS011;3265;42.694;23.282;2023-05-20T02:11:41;22.17;;;13.93;;
6463;SDS011;3265;42.694;23.282;2023-05-20T02:14:09;23.00;;;14.43;;
6463;SDS011;3265;42.694;23.282;2023-05-20T02:16:36;19.87;;;12.93;;
6463;SDS011;3265;42.694;23.282;2023-05-20T02:19:02;18.77;;;11.33;;
6463;SDS011;3265;42.694;23.282;2023-05-20T02:21:29;20.83;;;12.33;;
6463;SDS011;3265;42.694;23.282;2023-05-20T02:23:56;19.43;;;11.53;;
6463;SDS011;3265;42.694;23.282;2023-05-20T02:26:23;20.23;;;11.57;;
6463;SDS011;3265;42.694;23.282;2023-05-20T02:28:50;20.83;;;12.17;;
6463;SDS011;3265;42.694;23.282;2023-05-20T02:31:18;16.53;;;11.90;;
6463;SDS011;3265;42.694;23.282;2023-05-20T02:33:45;22.07;;;12.63;;
6463;SDS011;3265;42.694;23.282;2023-05-20T02:36:12;23.27;;;12.30;;
6463;SDS011;3265;42.694;23.282;2023-05-20T02:38:41;18.43;;;12.37;;
6463;SDS011;3265;42.694;23.282;2023-05-20T02:41:08;21.77;;;12.77;;
6463;SDS011;3265;42.694;23.282;2023-05-20T02:43:34;21.13;;;12.93;;
6463;SDS011;3265;42.694;23.282;2023-05-20T02:46:01;19.60;;;12.10;;
6463;SDS011;3265;42.694;23.282;2023-05-20T02:48:29;18.43;;;12.87;;
6463;SDS011;3265;42.694;23.282;2023-05-20T02:50:57;23.20;;;12.90;;
6463;SDS011;3265;42.694;23.282;2023-05-20T02:53:24;18.27;;;12.23;;
6463;SDS011;3265;42.694;23.282;2023-05-20T02:55:51;22.43;;;12.57;;
6463;SDS011;3265;42.694;23.282;2023-05-20T02:58:18;21.90;;;12.13;;
6463;SDS011;3265;42.694;23.282;2023-05-20T03:00:50;19.07;;;11.70;;
6463;SDS011;3265;42.694;23.282;2023-05-20T03:03:17;21.57;;;12.77;;
6463;SDS011;3265;42.694;23.282;2023-05-20T03:05:45;21.17;;;11.90;;
6463;SDS011;3265;42.694;23.282;2023-05-20T03:08:12;24.63;;;12.63;;
6463;SDS011;3265;42.694;23.282;2023-05-20T03:10:39;20.27;;;11.60;;
6463;SDS011;3265;42.694;23.282;2023-05-20T03:13:06;23.73;;;12.53;;
6463;SDS011;3265;42.694;23.282;2023-05-20T03:15:35;23.27;;;11.87;;
6463;SDS011;3265;42.694;23.282;2023-05-20T03:18:02;19.63;;;11.80;;
6463;SDS011;3265;42.694;23.282;2023-05-20T03:20:29;20.60;;;12.63;;
6463;SDS011;3265;42.694;23.282;2023-05-20T03:22:58;19.90;;;12.17;;
6463;SDS011;3265;42.694;23.282;2023-05-20T03:25:25;20.70;;;11.87;;
6463;SDS011;3265;42.694;23.282;2023-05-20T03:27:51;22.47;;;12.43;;
6463;SDS011;3265;42.694;23.282;2023-05-20T03:30:18;25.80;;;13.57;;
6463;SDS011;3265;42.694;23.282;2023-05-20T03:32:45;22.53;;;13.33;;
6463;SDS011;3265;42.694;23.282;2023-05-20T03:35:12;23.20;;;13.40;;
6463;SDS011;3265;42.694;23.282;2023-05-20T03:37:39;19.67;;;11.57;;
6463;SDS011;3265;42.694;23.282;2023-05-20T03:40:08;20.77;;;12.70;;
6463;SDS011;3265;42.694;23.282;2023-05-20T03:42:35;20.83;;;13.30;;
6463;SDS011;3265;42.694;23.282;2023-05-20T03:45:03;34.20;;;18.60;;
6463;SDS011;3265;42.694;23.282;2023-05-20T03:47:30;30.53;;;18.87;;
6463;SDS011;3265;42.694;23.282;2023-05-20T03:49:57;32.10;;;20.77;;
6463;SDS011;3265;42.694;23.282;2023-05-20T03:52:23;32.43;;;20.43;;
6463;SDS011;3265;42.694;23.282;2023-05-20T03:54:50;29.23;;;20.13;;
6463;SDS011;3265;42.694;23.282;2023-05-20T03:57:18;30.67;;;19.93;;
6463;SDS011;3265;42.694;23.282;2023-05-20T03:59:45;32.10;;;20.70;;
6463;SDS011;3265;42.694;23.282;2023-05-20T04:02:12;36.03;;;19.53;;
6463;SDS011;3265;42.694;23.282;2023-05-20T04:04:39;36.13;;;21.57;;
6463;SDS011;3265;42.694;23.282;2023-05-20T04:07:07;33.37;;;21.13;;
6463;SDS011;3265;42.694;23.282;2023-05-20T04:09:34;41.03;;;21.17;;
6463;SDS011;3265;42.694;23.282;2023-05-20T04:12:01;32.57;;;20.43;;
6463;SDS011;3265;42.694;23.282;2023-05-20T04:14:29;37.13;;;21.77;;
6463;SDS011;3265;42.694;23.282;2023-05-20T04:16:58;33.30;;;20.93;;
6463;SDS011;3265;42.694;23.282;2023-05-20T04:19:25;32.70;;;20.17;;
6463;SDS011;3265;42.694;23.282;2023-05-20T04:21:52;29.37;;;20.93;;
6463;SDS011;3265;42.694;23.282;2023-05-20T04:24:20;31.50;;;18.83;;
6463;SDS011;3265;42.694;23.282;2023-05-20T04:26:49;31.90;;;18.77;;
6463;SDS011;3265;42.694;23.282;2023-05-20T04:29:16;30.33;;;17.77;;
6463;SDS011;3265;42.694;23.282;2023-05-20T04:31:45;34.43;;;17.90;;
6463;SDS011;3265;42.694;23.282;2023-05-20T04:34:12;29.37;;;17.47;;
6463;SDS011;3265;42.694;23.282;2023-05-20T04:36:38;27.40;;;17.57;;
6463;SDS011;3265;42.694;23.282;2023-05-20T04:39:05;29.47;;;17.33;;
6463;SDS011;3265;42.694;23.282;2023-05-20T04:41:33;26.73;;;16.73;;
6463;SDS011;3265;42.694;23.282;2023-05-20T04:44:00;28.60;;;17.53;;
6463;SDS011;3265;42.694;23.282;2023-05-20T04:46:27;36.23;;;17.70;;
6463;SDS011;3265;42.694;23.282;2023-05-20T04:48:57;35.73;;;18.30;;
6463;SDS011;3265;42.694;23.282;2023-05-20T04:51:24;34.53;;;20.13;;
6463;SDS011;3265;42.694;23.282;2023-05-20T04:53:50;35.27;;;19.90;;
6463;SDS011;3265;42.694;23.282;2023-05-20T04:56:17;35.97;;;18.17;;
6463;SDS011;3265;42.694;23.282;2023-05-20T04:58:44;36.37;;;18.30;;
6463;SDS011;3265;42.694;23.282;2023-05-20T05:01:11;25.67;;;16.77;;
6463;SDS011;3265;42.694;23.282;2023-05-20T05:03:38;31.33;;;17.57;;
6463;SDS011;3265;42.694;23.282;2023-05-20T05:06:06;28.77;;;17.07;;
6463;SDS011;3265;42.694;23.282;2023-05-20T05:08:33;29.10;;;16.27;;
6463;SDS011;3265;42.694;23.282;2023-05-20T05:11:00;31.13;;;16.43;;
6463;SDS011;3265;42.694;23.282;2023-05-20T05:13:27;28.17;;;17.27;;
6463;SDS011;3265;42.694;23.282;2023-05-20T05:15:57;28.97;;;17.47;;
6463;SDS011;3265;42.694;23.282;2023-05-20T05:18:24;26.30;;;16.17;;
6463;SDS011;3265;42.694;23.282;2023-05-20T05:20:57;31.50;;;17.00;;
6463;SDS011;3265;42.694;23.282;2023-05-20T05:23:26;36.07;;;17.43;;
6463;SDS011;3265;42.694;23.282;2023-05-20T05:25:53;28.77;;;17.40;;
6463;SDS011;3265;42.694;23.282;2023-05-20T05:28:20;27.23;;;16.50;;
6463;SDS011;3265;42.694;23.282;2023-05-20T05:30:47;24.93;;;15.27;;
6463;SDS011;3265;42.694;23.282;2023-05-20T05:33:14;23.37;;;14.97;;
6463;SDS011;3265;42.694;23.282;2023-05-20T05:35:41;23.17;;;15.23;;
6463;SDS011;3265;42.694;23.282;2023-05-20T05:38:08;22.43;;;14.50;;
6463;SDS011;3265;42.694;23.282;2023-05-20T05:40:36;24.03;;;15.00;;
6463;SDS011;3265;42.694;23.282;2023-05-20T05:43:03;25.40;;;14.03;;
6463;SDS011;3265;42.694;23.282;2023-05-20T05:45:30;20.83;;;13.80;;
6463;SDS011;3265;42.694;23.282;2023-05-20T05:47:57;23.70;;;14.90;;
6463;SDS011;3265;42.694;23.282;2023-05-20T05:50:24;22.23;;;13.83;;
6463;SDS011;3265;42.694;23.282;2023-05-20T05:52:50;25.50;;;14.83;;
6463;SDS011;3265;42.694;23.282;2023-05-20T05:55:17;23.33;;;14.17;;
6463;SDS011;3265;42.694;23.282;2023-05-20T05:57:47;23.67;;;13.40;;
6463;SDS011;3265;42.694;23.282;2023-05-20T06:00:14;21.17;;;14.43;;
6463;SDS011;3265;42.694;23.282;2023-05-20T06:02:41;27.43;;;14.57;;
6463;SDS011;3265;42.694;23.282;2023-05-20T06:05:08;24.43;;;14.63;;
6463;SDS011;3265;42.694;23.282;2023-05-20T06:07:35;22.77;;;14.43;;
6463;SDS011;3265;42.694;23.282;2023-05-20T06:10:02;30.50;;;15.17;;
6463;SDS011;3265;42.694;23.282;2023-05-20T06:12:30;23.83;;;14.80;;
6463;SDS011;3265;42.694;23.282;2023-05-20T06:14:58;30.23;;;15.73;;
6463;SDS011;3265;42.694;23.282;2023-05-20T06:17:25;24.93;;;14.97;;
6463;SDS011;3265;42.694;23.282;2023-05-20T06:19:51;25.20;;;15.90;;
6463;SDS011;3265;42.694;23.282;2023-05-20T06:22:18;21.70;;;14.03;;
6463;SDS011;3265;42.694;23.282;2023-05-20T06:24:45;19.93;;;13.00;;
6463;SDS011;3265;42.694;23.282;2023-05-20T06:27:12;18.43;;;12.40;;
6463;SDS011;3265;42.694;23.282;2023-05-20T06:29:39;21.07;;;12.23;;
6463;SDS011;3265;42.694;23.282;2023-05-20T06:32:07;19.23;;;12.53;;
6463;SDS011;3265;42.694;23.282;2023-05-20T06:34:34;21.43;;;12.57;;
6463;SDS011;3265;42.694;23.282;2023-05-20T06:37:01;18.20;;;11.53;;
6463;SDS011;3265;42.694;23.282;2023-05-20T06:39:27;18.07;;;11.23;;
6463;SDS011;3265;42.694;23.282;2023-05-20T06:41:54;21.27;;;12.03;;
6463;SDS011;3265;42.694;23.282;2023-05-20T06:44:21;16.60;;;10.23;;
6463;SDS011;3265;42.694;23.282;2023-05-20T06:46:48;19.27;;;10.43;;
6463;SDS011;3265;42.694;23.282;2023-05-20T06:49:16;18.70;;;10.97;;
6463;SDS011;3265;42.694;23.282;2023-05-20T06:51:43;19.10;;;10.57;;
6463;SDS011;3265;42.694;23.282;2023-05-20T06:54:10;16.63;;;10.83;;
6463;SDS011;3265;42.694;23.282;2023-05-20T06:56:36;21.17;;;10.90;;
6463;SDS011;3265;42.694;23.282;2023-05-20T06:59:03;23.17;;;10.77;;
6463;SDS011;3265;42.694;23.282;2023-05-20T07:01:30;16.23;;;9.97;;
6463;SDS011;3265;42.694;23.282;2023-05-20T07:03:57;16.00;;;9.33;;
6463;SDS011;3265;42.694;23.282;2023-05-20T07:06:25;14.53;;;9.67;;
6463;SDS011;3265;42.694;23.282;2023-05-20T07:08:52;16.33;;;9.97;;
6463;SDS011;3265;42.694;23.282;2023-05-20T07:11:18;13.43;;;9.33;;
6463;SDS011;3265;42.694;23.282;2023-05-20T07:13:45;16.87;;;9.47;;
6463;SDS011;3265;42.694;23.282;2023-05-20T07:16:12;10.80;;;8.20;;
6463;SDS011;3265;42.694;23.282;2023-05-20T07:18:39;10.20;;;7.77;;
6463;SDS011;3265;42.694;23.282;2023-05-20T07:21:06;12.77;;;8.93;;
6463;SDS011;3265;42.694;23.282;2023-05-20T07:23:34;16.97;;;8.87;;
6463;SDS011;3265;42.694;23.282;2023-05-20T07:26:01;12.13;;;8.00;;
6463;SDS011;3265;42.694;23.282;2023-05-20T07:28:27;12.83;;;8.50;;
6463;SDS011;3265;42.694;23.282;2023-05-20T07:30:54;12.00;;;8.47;;
6463;SDS011;3265;42.694;23.282;2023-05-20T07:33:22;12.07;;;8.10;;
6463;SDS011;3265;42.694;23.282;2023-05-20T07:35:48;11.50;;;8.23;;
6463;SDS011;3265;42.694;23.282;2023-05-20T07:38:18;14.70;;;7.83;;
6463;SDS011;3265;42.694;23.282;2023-05-20T07:40:46;13.07;;;7.80;;
6463;SDS011;3265;42.694;23.282;2023-05-20T07:43:13;9.95;;;7.60;;
6463;SDS011;3265;42.694;23.282;2023-05-20T07:45:41;10.77;;;7.80;;
6463;SDS011;3265;42.694;23.282;2023-05-20T07:48:08;10.10;;;7.38;;
6463;SDS011;3265;42.694;23.282;2023-05-20T07:50:35;10.63;;;7.90;;
6463;SDS011;3265;42.694;23.282;2023-05-20T07:53:02;10.55;;;7.28;;
6463;SDS011;3265;42.694;23.282;2023-05-20T07:55:29;12.38;;;7.30;;
6463;SDS011;3265;42.694;23.282;2023-05-20T07:57:57;14.20;;;7.03;;
6463;SDS011;3265;42.694;23.282;2023-05-20T08:00:24;9.52;;;7.05;;
6463;SDS011;3265;42.694;23.282;2023-05-20T08:02:51;15.43;;;8.18;;
6463;SDS011;3265;42.694;23.282;2023-05-20T08:05:18;12.50;;;7.57;;
6463;SDS011;3265;42.694;23.282;2023-05-20T08:07:46;11.02;;;7.75;;
6463;SDS011;3265;42.694;23.282;2023-05-20T08:10:13;8.77;;;7.10;;
6463;SDS011;3265;42.694;23.282;2023-05-20T08:12:40;10.75;;;7.43;;
6463;SDS011;3265;42.694;23.282;2023-05-20T08:15:09;13.30;;;7.30;;
6463;SDS011;3265;42.694;23.282;2023-05-20T08:17:36;12.48;;;7.43;;
6463;SDS011;3265;42.694;23.282;2023-05-20T08:20:04;12.95;;;8.05;;
6463;SDS011;3265;42.694;23.282;2023-05-20T08:22:32;13.98;;;7.72;;
6463;SDS011;3265;42.694;23.282;2023-05-20T08:25:00;15.98;;;7.82;;
6463;SDS011;3265;42.694;23.282;2023-05-20T08:27:26;11.68;;;7.30;;
6463;SDS011;3265;42.694;23.282;2023-05-20T08:29:53;11.95;;;7.53;;
6463;SDS011;3265;42.694;23.282;2023-05-20T08:32:21;11.85;;;7.88;;
6463;SDS011;3265;42.694;23.282;2023-05-20T08:34:48;14.32;;;8.00;;
6463;SDS011;3265;42.694;23.282;2023-05-20T08:37:15;10.55;;;7.68;;
6463;SDS011;3265;42.694;23.282;2023-05-20T08:39:42;11.98;;;7.55;;
6463;SDS011;3265;42.694;23.282;2023-05-20T08:42:10;12.73;;;7.35;;
6463;SDS011;3265;42.694;23.282;2023-05-20T08:44:37;11.27;;;7.32;;
6463;SDS011;3265;42.694;23.282;2023-05-20T08:47:06;11.15;;;7.50;;
6463;SDS011;3265;42.694;23.282;2023-05-20T08:49:35;11.23;;;7.22;;
6463;SDS011;3265;42.694;23.282;2023-05-20T08:52:02;10.55;;;7.25;;
6463;SDS011;3265;42.694;23.282;2023-05-20T08:54:32;9.68;;;7.03;;
6463;SDS011;3265;42.694;23.282;2023-05-20T08:57:08;9.70;;;7.03;;
6463;SDS011;3265;42.694;23.282;2023-05-20T08:59:38;11.35;;;7.38;;
6463;SDS011;3265;42.694;23.282;2023-05-20T09:02:07;12.82;;;7.47;;
6463;SDS011;3265;42.694;23.282;2023-05-20T09:04:36;10.02;;;7.75;;
6463;SDS011;3265;42.694;23.282;2023-05-20T09:07:03;10.57;;;7.70;;
6463;SDS011;3265;42.694;23.282;2023-05-20T09:09:31;13.23;;;7.60;;
6463;SDS011;3265;42.694;23.282;2023-05-20T09:11:59;12.45;;;7.30;;
6463;SDS011;3265;42.694;23.282;2023-05-20T09:14:27;9.60;;;6.93;;
6463;SDS011;3265;42.694;23.282;2023-05-20T09:16:54;9.68;;;7.32;;
6463;SDS011;3265;42.694;23.282;2023-05-20T09:19:21;10.10;;;7.15;;
6463;SDS011;3265;42.694;23.282;2023-05-20T09:21:49;12.88;;;6.60;;
6463;SDS011;3265;42.694;23.282;2023-05-20T09:24:19;7.60;;;4.93;;
6463;SDS011;3265;42.694;23.282;2023-05-20T09:26:48;14.73;;;6.63;;
6463;SDS011;3265;42.694;23.282;2023-05-20T09:29:15;10.45;;;7.20;;
6463;SDS011;3265;42.694;23.282;2023-05-20T09:31:43;15.73;;;7.50;;
6463;SDS011;3265;42.694;23.282;2023-05-20T09:34:10;16.48;;;7.40;;
6463;SDS011;3265;42.694;23.282;2023-05-20T09:36:38;10.07;;;7.40;;
6463;SDS011;3265;42.694;23.282;2023-05-20T09:39:07;10.15;;;7.35;;
6463;SDS011;3265;42.694;23.282;2023-05-20T09:41:38;10.10;;;6.70;;
6463;SDS011;3265;42.694;23.282;2023-05-20T09:44:20;10.25;;;6.97;;
6463;SDS011;3265;42.694;23.282;2023-05-20T09:46:48;12.30;;;7.75;;
6463;SDS011;3265;42.694;23.282;2023-05-20T09:49:16;12.93;;;7.43;;
6463;SDS011;3265;42.694;23.282;2023-05-20T09:51:45;9.98;;;6.70;;
6463;SDS011;3265;42.694;23.282;2023-05-20T09:54:16;16.05;;;7.18;;
6463;SDS011;3265;42.694;23.282;2023-05-20T09:56:45;11.38;;;7.25;;
6463;SDS011;3265;42.694;23.282;2023-05-20T09:59:12;11.63;;;7.22;;
6463;SDS011;3265;42.694;23.282;2023-05-20T10:01:42;12.23;;;6.82;;
6463;SDS011;3265;42.694;23.282;2023-05-20T10:04:09;11.57;;;6.95;;
6463;SDS011;3265;42.694;23.282;2023-05-20T10:09:52;13.15;;;7.18;;
6463;SDS011;3265;42.694;23.282;2023-05-20T10:12:28;11.43;;;7.10;;
6463;SDS011;3265;42.694;23.282;2023-05-20T10:15:08;11.63;;;7.40;;
6463;SDS011;3265;42.694;23.282;2023-05-20T10:17:43;8.70;;;6.95;;
6463;SDS011;3265;42.694;23.282;2023-05-20T10:20:19;11.52;;;7.18;;
6463;SDS011;3265;42.694;23.282;2023-05-20T10:22:53;9.32;;;6.25;;
6463;SDS011;3265;42.694;23.282;2023-05-20T10:25:26;7.57;;;6.22;;
6463;SDS011;3265;42.694;23.282;2023-05-20T10:28:03;10.27;;;6.40;;
6463;SDS011;3265;42.694;23.282;2023-05-20T10:30:32;7.03;;;5.70;;
6463;SDS011;3265;42.694;23.282;2023-05-20T10:33:02;11.43;;;6.22;;
6463;SDS011;3265;42.694;23.282;2023-05-20T10:35:30;8.05;;;5.95;;
6463;SDS011;3265;42.694;23.282;2023-05-20T10:38:05;10.43;;;5.72;;
6463;SDS011;3265;42.694;23.282;2023-05-20T10:40:35;13.70;;;5.88;;
6463;SDS011;3265;42.694;23.282;2023-05-20T10:43:08;8.25;;;5.55;;
6463;SDS011;3265;42.694;23.282;2023-05-20T10:45:47;9.35;;;5.25;;
6463;SDS011;3265;42.694;23.282;2023-05-20T10:48:24;8.23;;;5.10;;
6463;SDS011;3265;42.694;23.282;2023-05-20T10:50:55;9.57;;;5.13;;
6463;SDS011;3265;42.694;23.282;2023-05-20T10:53:24;8.50;;;5.47;;
6463;SDS011;3265;42.694;23.282;2023-05-20T10:55:53;11.48;;;5.68;;
6463;SDS011;3265;42.694;23.282;2023-05-20T10:58:20;10.90;;;5.30;;
6463;SDS011;3265;42.694;23.282;2023-05-20T11:00:48;7.38;;;5.30;;
6463;SDS011;3265;42.694;23.282;2023-05-20T11:03:17;9.40;;;5.28;;
6463;SDS011;3265;42.694;23.282;2023-05-20T11:05:46;9.85;;;5.90;;
6463;SDS011;3265;42.694;23.282;2023-05-20T11:08:13;8.38;;;6.43;;
6463;SDS011;3265;42.694;23.282;2023-05-20T11:10:42;10.27;;;5.70;;
6463;SDS011;3265;42.694;23.282;2023-05-20T11:13:12;15.13;;;6.15;;
6463;SDS011;3265;42.694;23.282;2023-05-20T11:15:39;9.30;;;6.15;;
6463;SDS011;3265;42.694;23.282;2023-05-20T11:18:09;7.90;;;6.05;;
6463;SDS011;3265;42.694;23.282;2023-05-20T11:20:36;10.70;;;6.40;;
6463;SDS011;3265;42.694;23.282;2023-05-20T11:23:04;9.82;;;6.32;;
6463;SDS011;3265;42.694;23.282;2023-05-20T11:25:32;14.65;;;5.68;;
6463;SDS011;3265;42.694;23.282;2023-05-20T11:27:59;8.95;;;5.70;;
6463;SDS011;3265;42.694;23.282;2023-05-20T11:30:27;8.07;;;5.95;;
6463;SDS011;3265;42.694;23.282;2023-05-20T11:32:56;8.95;;;6.05;;
6463;SDS011;3265;42.694;23.282;2023-05-20T11:35:25;9.23;;;6.03;;
6463;SDS011;3265;42.694;23.282;2023-05-20T11:37:55;7.60;;;5.72;;
6463;SDS011;3265;42.694;23.282;2023-05-20T11:40:23;10.02;;;5.70;;
6463;SDS011;3265;42.694;23.282;2023-05-20T11:42:52;9.88;;;5.65;;
6463;SDS011;3265;42.694;23.282;2023-05-20T11:45:19;12.35;;;5.72;;
6463;SDS011;3265;42.694;23.282;2023-05-20T11:47:47;8.70;;;5.40;;
6463;SDS011;3265;42.694;23.282;2023-05-20T11:50:24;11.05;;;5.72;;
6463;SDS011;3265;42.694;23.282;2023-05-20T11:52:54;18.80;;;6.03;;
6463;SDS011;3265;42.694;23.282;2023-05-20T11:55:22;7.28;;;5.70;;
6463;SDS011;3265;42.694;23.282;2023-05-20T11:57:49;7.47;;;5.63;;
6463;SDS011;3265;42.694;23.282;2023-05-20T12:00:16;8.93;;;5.47;;
6463;SDS011;3265;42.694;23.282;2023-05-20T12:02:43;10.60;;;5.80;;
6463;SDS011;3265;42.694;23.282;2023-05-20T12:05:11;8.18;;;6.18;;
6463;SDS011;3265;42.694;23.282;2023-05-20T12:07:38;11.18;;;6.03;;
6463;SDS011;3265;42.694;23.282;2023-05-20T12:10:06;10.52;;;6.13;;
6463;SDS011;3265;42.694;23.282;2023-05-20T12:12:33;9.32;;;6.05;;
6463;SDS011;3265;42.694;23.282;2023-05-20T12:15:01;10.48;;;6.45;;
6463;SDS011;3265;42.694;23.282;2023-05-20T12:17:28;11.18;;;5.95;;
6463;SDS011;3265;42.694;23.282;2023-05-20T12:19:55;7.22;;;5.65;;
6463;SDS011;3265;42.694;23.282;2023-05-20T12:22:23;7.20;;;5.53;;
6463;SDS011;3265;42.694;23.282;2023-05-20T12:24:50;9.80;;;6.50;;
6463;SDS011;3265;42.694;23.282;2023-05-20T12:27:16;11.02;;;6.28;;
6463;SDS011;3265;42.694;23.282;2023-05-20T12:29:43;14.60;;;6.45;;
6463;SDS011;3265;42.694;23.282;2023-05-20T12:32:10;7.97;;;5.88;;
6463;SDS011;3265;42.694;23.282;2023-05-20T12:34:37;15.35;;;6.38;;
6463;SDS011;3265;42.694;23.282;2023-05-20T12:37:04;11.15;;;6.18;;
6463;SDS011;3265;42.694;23.282;2023-05-20T12:39:32;7.22;;;5.55;;
6463;SDS011;3265;42.694;23.282;2023-05-20T12:41:59;11.75;;;5.95;;
6463;SDS011;3265;42.694;23.282;2023-05-20T12:44:26;9.20;;;5.68;;
6463;SDS011;3265;42.694;23.282;2023-05-20T12:46:53;12.57;;;6.47;;
6463;SDS011;3265;42.694;23.282;2023-05-20T12:49:21;9.57;;;5.28;;
6463;SDS011;3265;42.694;23.282;2023-05-20T12:51:48;7.35;;;3.63;;
6463;SDS011;3265;42.694;23.282;2023-05-20T12:54:15;12.10;;;3.58;;
6463;SDS011;3265;42.694;23.282;2023-05-20T12:56:45;6.28;;;3.47;;
6463;SDS011;3265;42.694;23.282;2023-05-20T12:59:12;6.40;;;3.60;;
6463;SDS011;3265;42.694;23.282;2023-05-20T13:01:39;5.80;;;3.72;;
6463;SDS011;3265;42.694;23.282;2023-05-20T13:04:06;4.95;;;3.50;;
6463;SDS011;3265;42.694;23.282;2023-05-20T13:06:33;8.38;;;4.13;;
6463;SDS011;3265;42.694;23.282;2023-05-20T13:09:00;6.22;;;4.40;;
6463;SDS011;3265;42.694;23.282;2023-05-20T13:11:27;8.95;;;4.40;;
6463;SDS011;3265;42.694;23.282;2023-05-20T13:13:55;6.50;;;3.55;;
6463;SDS011;3265;42.694;23.282;2023-05-20T13:16:22;8.20;;;4.28;;
6463;SDS011;3265;42.694;23.282;2023-05-20T13:18:49;8.80;;;4.57;;
6463;SDS011;3265;42.694;23.282;2023-05-20T13:21:16;10.80;;;4.55;;
6463;SDS011;3265;42.694;23.282;2023-05-20T13:23:43;6.95;;;4.50;;
6463;SDS011;3265;42.694;23.282;2023-05-20T13:26:10;6.70;;;4.70;;
6463;SDS011;3265;42.694;23.282;2023-05-20T13:28:38;8.50;;;4.85;;
6463;SDS011;3265;42.694;23.282;2023-05-20T13:31:06;7.35;;;4.78;;
6463;SDS011;3265;42.694;23.282;2023-05-20T13:33:33;6.15;;;4.63;;
6463;SDS011;3265;42.694;23.282;2023-05-20T13:35:59;5.85;;;4.90;;
6463;SDS011;3265;42.694;23.282;2023-05-20T13:38:26;6.10;;;4.82;;
6463;SDS011;3265;42.694;23.282;2023-05-20T13:40:53;6.97;;;4.70;;
6463;SDS011;3265;42.694;23.282;2023-05-20T13:43:23;7.90;;;4.63;;
6463;SDS011;3265;42.694;23.282;2023-05-20T13:45:51;6.43;;;4.43;;
6463;SDS011;3265;42.694;23.282;2023-05-20T13:48:19;10.23;;;5.20;;
6463;SDS011;3265;42.694;23.282;2023-05-20T13:50:46;7.30;;;4.65;;
6463;SDS011;3265;42.694;23.282;2023-05-20T13:53:13;5.78;;;4.40;;
6463;SDS011;3265;42.694;23.282;2023-05-20T13:55:40;6.88;;;4.97;;
6463;SDS011;3265;42.694;23.282;2023-05-20T13:58:07;8.80;;;5.20;;
6463;SDS011;3265;42.694;23.282;2023-05-20T14:00:34;7.75;;;4.80;;
6463;SDS011;3265;42.694;23.282;2023-05-20T14:03:01;7.90;;;4.85;;
6463;SDS011;3265;42.694;23.282;2023-05-20T14:05:30;7.93;;;4.75;;
6463;SDS011;3265;42.694;23.282;2023-05-20T14:07:57;6.53;;;4.90;;
6463;SDS011;3265;42.694;23.282;2023-05-20T14:10:24;8.45;;;5.03;;
6463;SDS011;3265;42.694;23.282;2023-05-20T14:12:52;6.82;;;5.20;;
6463;SDS011;3265;42.694;23.282;2023-05-20T14:15:19;6.18;;;4.60;;
6463;SDS011;3265;42.694;23.282;2023-05-20T14:17:46;6.47;;;4.65;;
6463;SDS011;3265;42.694;23.282;2023-05-20T14:20:13;5.40;;;4.50;;
6463;SDS011;3265;42.694;23.282;2023-05-20T14:22:42;6.93;;;4.88;;
6463;SDS011;3265;42.694;23.282;2023-05-20T14:25:09;6.25;;;5.15;;
6463;SDS011;3265;42.694;23.282;2023-05-20T14:27:36;7.50;;;5.35;;
6463;SDS011;3265;42.694;23.282;2023-05-20T14:30:03;7.80;;;5.05;;
6463;SDS011;3265;42.694;23.282;2023-05-20T14:32:30;7.95;;;5.00;;
6463;SDS011;3265;42.694;23.282;2023-05-20T14:34:57;6.65;;;4.60;;
6463;SDS011;3265;42.694;23.282;2023-05-20T14:37:24;12.50;;;5.45;;
6463;SDS011;3265;42.694;23.282;2023-05-20T14:39:53;8.65;;;5.10;;
6463;SDS011;3265;42.694;23.282;2023-05-20T14:42:20;7.47;;;4.85;;
6463;SDS011;3265;42.694;23.282;2023-05-20T14:44:47;7.13;;;5.47;;
6463;SDS011;3265;42.694;23.282;2023-05-20T14:47:13;8.20;;;6.25;;
6463;SDS011;3265;42.694;23.282;2023-05-20T14:49:43;10.05;;;5.57;;
6463;SDS011;3265;42.694;23.282;2023-05-20T14:52:11;7.28;;;6.35;;